Gratkorn, Austria
Current Conditions -  °F | °C
As of 8:50 AM on Thursday 27 Nov 2014 (Local Time) from LOWG Reporting Station
Haze Haze  
Wind Chill: 31°   Ceiling: 600
Heat Index: 36°   Visibility: 2.5mi
Dew Point: 34°   Wind: 6mph
Humidity: 93%   Direction: 130°SE
Pressure: 30.06"   Gusts: NA
Location:  47.13°N, 15.35°E
Report Text: LOWG 270650Z 13005KT 4000 BR FEW004 OVC006 02/01 Q1018 TEMPO BKN008
Loading
Personal Weather Stations






























Interactive Weather Map New forecast layout! Learn more

10-Day Weather Forecast

Advertisements
Track Severe Weather on mobile